Terminal Aerodrome Forecast
Issued by NWS

Home | Current Version | Previous Version | Text Only | Print | Product List | Glossary On
Versions: 1 2 3 4 5 6 7 8 9 10 11 12 13 14 15 16 17 18
000
FTUS43 KDTX 212320
TAFYIP
TAF
KYIP 212320Z 2200/2224 16004KT P6SM SCT150 BKN250
     FM220900 12004KT P6SM -SHRA BKN045 OVC100 PROB30 2209/2213 2SM
      +TSRA BKN022CB OVC040
     FM221400 17008KT 6SM BR SCT022 BKN040 OVC150
     FM221900 21008KT P6SM BKN045=

USA.gov is the U.S. government's official web portal to all federal, state and local government web resources and services.